createdAt,value
2018-07-08T00:01:41.199Z,3.20
2018-07-08T00:04:10.116Z,3.23
2018-07-08T00:06:38.947Z,4.20
2018-07-08T00:09:07.739Z,3.50
2018-07-08T00:11:36.378Z,3.50
2018-07-08T00:14:05.134Z,3.40
2018-07-08T00:16:33.993Z,3.20
2018-07-08T00:19:02.928Z,3.77
2018-07-08T00:21:31.803Z,3.60
2018-07-08T00:24:00.674Z,3.53
2018-07-08T00:26:29.576Z,4.13
2018-07-08T00:28:58.427Z,4.10
2018-07-08T00:31:27.219Z,3.20
2018-07-08T00:33:56.066Z,3.67
2018-07-08T00:36:24.927Z,3.40
2018-07-08T00:38:53.837Z,3.47
2018-07-08T00:41:22.748Z,3.90
2018-07-08T00:43:51.882Z,4.10
2018-07-08T00:46:20.675Z,4.10
2018-07-08T00:48:49.516Z,3.77
2018-07-08T00:51:18.412Z,3.60
2018-07-08T00:53:47.184Z,3.67
2018-07-08T00:56:15.935Z,3.73
2018-07-08T00:58:44.787Z,3.33
2018-07-08T01:01:13.648Z,3.67
2018-07-08T01:03:42.571Z,3.60
2018-07-08T01:06:11.388Z,4.07
2018-07-08T01:08:40.261Z,3.47
2018-07-08T01:11:09.290Z,3.60
2018-07-08T01:13:38.091Z,3.60
2018-07-08T01:16:07.044Z,3.60
2018-07-08T01:18:35.819Z,4.13
2018-07-08T01:21:04.711Z,3.70
2018-07-08T01:23:33.516Z,3.90
2018-07-08T01:26:11.355Z,3.87
2018-07-08T01:28:41.279Z,3.80
2018-07-08T01:31:11.545Z,3.47
2018-07-08T01:33:40.425Z,3.97
2018-07-08T01:36:09.838Z,3.87
2018-07-08T01:38:38.625Z,3.67
2018-07-08T01:41:07.564Z,3.53
2018-07-08T01:43:36.398Z,3.80
2018-07-08T01:46:05.448Z,3.93
2018-07-08T01:48:34.346Z,3.63
2018-07-08T01:51:03.134Z,3.93
2018-07-08T01:53:32.159Z,3.83
2018-07-08T01:56:00.824Z,3.73
2018-07-08T01:58:29.891Z,4.30
2018-07-08T02:00:58.732Z,4.00
2018-07-08T02:03:27.672Z,4.20
2018-07-08T02:05:56.579Z,4.77
2018-07-08T02:08:25.560Z,4.40
2018-07-08T02:10:54.438Z,3.87
2018-07-08T02:13:23.406Z,4.47
2018-07-08T02:15:52.084Z,3.90
2018-07-08T02:18:21.058Z,4.83
2018-07-08T02:20:49.927Z,3.90
2018-07-08T02:23:18.910Z,4.23
2018-07-08T02:25:47.680Z,4.80
2018-07-08T02:28:16.611Z,4.80
2018-07-08T02:30:45.599Z,4.93
2018-07-08T02:33:14.640Z,4.43
2018-07-08T02:35:43.354Z,4.93
2018-07-08T02:38:12.724Z,4.40
2018-07-08T02:40:41.680Z,4.13
2018-07-08T02:43:10.663Z,4.10
2018-07-08T02:45:45.391Z,3.80
2018-07-08T02:48:14.343Z,4.47
2018-07-08T02:50:43.076Z,4.40
2018-07-08T02:53:11.996Z,3.90
2018-07-08T02:55:40.822Z,4.40
2018-07-08T02:58:09.639Z,4.93
2018-07-08T03:00:38.460Z,4.83
2018-07-08T03:03:07.636Z,3.60
2018-07-08T03:05:36.540Z,5.17
2018-07-08T03:08:05.460Z,4.47
2018-07-08T03:10:34.302Z,4.33
2018-07-08T03:13:03.158Z,4.67
2018-07-08T03:15:31.806Z,4.33
2018-07-08T03:18:00.655Z,4.93
2018-07-08T03:20:29.491Z,4.23
2018-07-08T03:22:58.305Z,4.10
2018-07-08T03:25:27.139Z,4.00
2018-07-08T03:27:55.903Z,4.00
2018-07-08T03:30:24.788Z,4.17
2018-07-08T03:32:53.413Z,4.40
2018-07-08T03:35:22.218Z,4.40
2018-07-08T03:37:51.336Z,4.40
2018-07-08T03:40:20.176Z,4.10
2018-07-08T03:42:49.055Z,4.43
2018-07-08T03:45:23.979Z,4.17
2018-07-08T03:47:52.583Z,3.80
2018-07-08T03:50:21.383Z,4.10
2018-07-08T03:52:50.306Z,4.23
2018-07-08T03:55:19.115Z,3.90
2018-07-08T03:57:47.988Z,4.93
2018-07-08T04:00:17.046Z,3.30
2018-07-08T04:02:45.916Z,4.53
2018-07-08T04:05:14.756Z,3.73
2018-07-08T04:07:43.632Z,3.70
2018-07-08T04:10:12.443Z,3.93
2018-07-08T04:12:41.265Z,3.73
2018-07-08T04:15:10.124Z,4.07
2018-07-08T04:17:39.107Z,3.97
2018-07-08T04:20:08.049Z,4.00
2018-07-08T04:22:36.718Z,4.00
2018-07-08T04:25:05.879Z,3.80
2018-07-08T04:27:34.699Z,3.63
2018-07-08T04:30:03.649Z,3.53
2018-07-08T04:32:32.491Z,3.77
2018-07-08T04:35:01.258Z,4.27
2018-07-08T04:37:30.087Z,4.00
2018-07-08T04:39:58.865Z,4.03
2018-07-08T04:42:27.806Z,3.80
2018-07-08T04:44:56.649Z,4.20
2018-07-08T04:47:25.460Z,3.27
2018-07-08T04:49:54.234Z,3.23
2018-07-08T04:52:23.043Z,3.30
2018-07-08T04:54:51.942Z,3.37
2018-07-08T04:57:20.779Z,4.50
2018-07-08T04:59:49.942Z,3.67
2018-07-08T05:02:18.732Z,3.83
2018-07-08T05:04:47.547Z,3.63
2018-07-08T05:07:16.412Z,3.10
2018-07-08T05:09:45.214Z,3.00
2018-07-08T05:12:13.980Z,2.50
2018-07-08T05:14:42.624Z,3.20
2018-07-08T05:17:11.515Z,2.90
2018-07-08T05:19:40.678Z,2.67
2018-07-08T05:22:09.473Z,3.10
2018-07-08T05:24:38.606Z,2.53
2018-07-08T05:27:07.414Z,2.60
2018-07-08T05:29:36.218Z,2.40
2018-07-08T05:32:05.211Z,2.50
2018-07-08T05:34:33.850Z,2.00
2018-07-08T05:37:02.616Z,2.77
2018-07-08T05:39:35.578Z,2.50
2018-07-08T05:42:04.644Z,2.70
2018-07-08T05:44:33.467Z,1.93
2018-07-08T05:47:02.130Z,2.23
2018-07-08T05:49:31.018Z,2.17
2018-07-08T05:51:59.836Z,2.17
2018-07-08T05:54:28.616Z,2.10
2018-07-08T05:56:57.504Z,2.10
2018-07-08T05:59:26.353Z,1.80
2018-07-08T06:01:55.184Z,2.10
2018-07-08T06:04:23.976Z,2.30
2018-07-08T06:06:52.960Z,1.83
2018-07-08T06:09:21.771Z,2.50
2018-07-08T06:11:50.786Z,1.80
2018-07-08T06:14:19.553Z,2.13
2018-07-08T06:16:48.219Z,1.70
2018-07-08T06:19:17.024Z,1.70
2018-07-08T06:21:45.963Z,2.10
2018-07-08T06:24:14.957Z,1.53
2018-07-08T06:26:43.772Z,1.87
2018-07-08T06:29:12.621Z,2.23
2018-07-08T06:31:41.481Z,2.30
2018-07-08T06:34:10.300Z,1.60
2018-07-08T06:36:39.115Z,1.77
2018-07-08T06:39:07.940Z,2.10
2018-07-08T06:41:36.808Z,1.60
2018-07-08T06:44:05.723Z,1.87
2018-07-08T06:46:34.601Z,1.70
2018-07-08T06:49:03.629Z,1.47
2018-07-08T06:51:32.653Z,1.47
2018-07-08T06:54:01.555Z,1.80
2018-07-08T06:56:30.332Z,2.40
2018-07-08T06:58:59.058Z,1.57
2018-07-08T07:01:28.135Z,1.80
2018-07-08T07:03:56.968Z,1.90
2018-07-08T07:06:25.723Z,2.07
2018-07-08T07:08:54.544Z,2.03
2018-07-08T07:11:23.439Z,1.80
2018-07-08T07:13:52.292Z,1.70
2018-07-08T07:16:21.080Z,2.30
2018-07-08T07:18:49.883Z,1.80
2018-07-08T07:21:18.669Z,1.90
2018-07-08T07:23:48.276Z,1.80
2018-07-08T07:26:17.088Z,1.67
2018-07-08T07:28:46.157Z,1.63
2018-07-08T07:31:14.987Z,1.80
2018-07-08T07:33:43.825Z,1.60
2018-07-08T07:36:12.771Z,1.60
2018-07-08T07:38:41.543Z,1.63
2018-07-08T07:41:10.343Z,1.40
2018-07-08T07:43:39.159Z,1.70
2018-07-08T07:46:07.943Z,1.70
2018-07-08T07:48:36.807Z,1.53
2018-07-08T07:51:05.700Z,1.50
2018-07-08T07:53:40.595Z,1.63
2018-07-08T07:56:09.435Z,1.90
2018-07-08T07:58:38.276Z,1.50
2018-07-08T08:01:07.417Z,1.67
2018-07-08T08:03:36.196Z,1.73
2018-07-08T08:06:05.141Z,1.93
2018-07-08T08:08:34.030Z,2.07
2018-07-08T08:11:02.945Z,1.57
2018-07-08T08:13:31.732Z,2.10
2018-07-08T08:16:00.561Z,2.07
2018-07-08T08:18:29.351Z,1.53
2018-07-08T08:20:58.413Z,1.63
2018-07-08T08:23:27.591Z,2.03
2018-07-08T08:25:56.389Z,1.40
2018-07-08T08:28:25.148Z,2.47
2018-07-08T08:30:53.982Z,1.43
2018-07-08T08:33:23.265Z,1.57
2018-07-08T08:35:52.158Z,1.40
2018-07-08T08:38:20.918Z,1.40
2018-07-08T08:40:49.943Z,1.60
2018-07-08T08:43:18.891Z,1.63
2018-07-08T08:45:48.499Z,2.00
2018-07-08T08:48:17.453Z,1.77
2018-07-08T08:50:46.219Z,1.47
2018-07-08T08:53:15.023Z,1.37
2018-07-08T08:55:43.820Z,1.47
2018-07-08T08:58:12.691Z,1.83
2018-07-08T09:00:41.512Z,1.50
2018-07-08T09:03:10.575Z,2.00
2018-07-08T09:05:39.348Z,1.40
2018-07-08T09:08:08.188Z,1.60
2018-07-08T09:10:36.983Z,1.27
2018-07-08T09:13:06.032Z,1.00
2018-07-08T09:15:34.635Z,1.70
2018-07-08T09:18:03.460Z,1.97
2018-07-08T09:20:32.253Z,1.37
2018-07-08T09:23:01.112Z,1.47
2018-07-08T09:25:29.956Z,1.50
2018-07-08T09:27:58.771Z,1.50
2018-07-08T09:30:27.670Z,1.57
2018-07-08T09:32:56.563Z,1.50
2018-07-08T09:35:25.362Z,1.50
2018-07-08T09:37:54.546Z,1.73
2018-07-08T09:40:23.380Z,1.40
2018-07-08T09:42:52.235Z,1.10
2018-07-08T09:45:27.432Z,1.27
2018-07-08T09:47:56.285Z,1.47
2018-07-08T09:50:25.140Z,1.40
2018-07-08T09:52:53.738Z,1.00
2018-07-08T09:55:22.582Z,1.00
2018-07-08T09:57:51.364Z,0.97
2018-07-08T10:00:20.282Z,1.00
2018-07-08T10:02:49.059Z,0.83
2018-07-08T10:05:17.878Z,0.80
2018-07-08T10:07:46.482Z,0.97
2018-07-08T10:10:15.357Z,1.00
2018-07-08T10:12:44.200Z,1.10
2018-07-08T10:15:13.361Z,0.97
2018-07-08T10:17:42.182Z,1.20
2018-07-08T10:20:11.116Z,1.23
2018-07-08T10:22:39.865Z,1.00
2018-07-08T10:25:08.799Z,0.93
2018-07-08T10:27:53.489Z,1.40
2018-07-08T10:30:22.337Z,1.20
2018-07-08T10:32:51.138Z,0.97
2018-07-08T10:36:03.807Z,1.00
2018-07-08T10:38:32.853Z,1.27
2018-07-08T10:41:01.686Z,0.80
2018-07-08T10:43:30.597Z,1.10
2018-07-08T10:45:59.445Z,1.10
2018-07-08T10:48:28.090Z,0.73
2018-07-08T10:50:56.873Z,1.00
2018-07-08T10:53:25.723Z,0.90
2018-07-08T10:55:54.527Z,1.60
2018-07-08T10:58:23.448Z,0.80
2018-07-08T11:00:52.381Z,0.83
2018-07-08T11:03:21.065Z,1.10
2018-07-08T11:05:49.971Z,1.20
2018-07-08T11:08:18.894Z,0.97
2018-07-08T11:10:47.593Z,1.27
2018-07-08T11:13:16.428Z,1.33
2018-07-08T11:15:45.065Z,0.83
2018-07-08T11:18:13.900Z,1.07
2018-07-08T11:20:42.806Z,0.90
2018-07-08T11:23:11.683Z,1.03
2018-07-08T11:25:40.542Z,1.33
2018-07-08T11:28:09.918Z,1.20
2018-07-08T11:30:38.865Z,1.47
2018-07-08T11:33:08.411Z,1.23
2018-07-08T11:35:37.205Z,1.30
2018-07-08T11:38:06.555Z,0.83
2018-07-08T11:40:35.436Z,1.10
2018-07-08T11:43:04.380Z,1.03
2018-07-08T11:45:39.331Z,1.50
2018-07-08T11:48:08.244Z,1.43
2018-07-08T11:50:37.088Z,1.13
2018-07-08T11:53:05.706Z,1.37
2018-07-08T11:55:34.541Z,1.20
2018-07-08T11:58:03.436Z,1.40
2018-07-08T12:00:32.355Z,0.90
2018-07-08T12:03:01.177Z,1.57
2018-07-08T12:05:30.055Z,1.20
2018-07-08T12:07:58.953Z,1.30
2018-07-08T12:10:27.796Z,0.93
2018-07-08T12:12:56.931Z,1.20
2018-07-08T12:15:25.795Z,1.23
2018-07-08T12:17:54.401Z,1.00
2018-07-08T12:20:23.285Z,1.10
2018-07-08T12:22:52.026Z,1.50
2018-07-08T12:25:21.139Z,1.20
2018-07-08T12:27:49.956Z,1.23
2018-07-08T12:30:18.817Z,1.07
2018-07-08T12:32:47.632Z,1.50
2018-07-08T12:35:16.249Z,1.60
2018-07-08T12:37:45.192Z,1.20
2018-07-08T12:40:13.963Z,1.57
2018-07-08T12:42:42.867Z,1.20
2018-07-08T12:45:17.678Z,1.10
2018-07-08T12:47:46.899Z,1.23
2018-07-08T12:50:15.700Z,1.00
2018-07-08T12:52:44.551Z,1.60
2018-07-08T12:55:13.324Z,1.73
2018-07-08T12:57:42.131Z,1.67
2018-07-08T13:00:11.122Z,1.07
2018-07-08T13:02:40.296Z,1.60
2018-07-08T13:05:09.095Z,1.00
2018-07-08T13:07:37.967Z,1.03
2018-07-08T13:10:06.836Z,1.20
2018-07-08T13:12:35.723Z,1.70
2018-07-08T13:15:04.967Z,1.23
2018-07-08T13:17:33.872Z,1.40
2018-07-08T13:20:02.676Z,1.03
2018-07-08T13:22:31.521Z,1.47
2018-07-08T13:25:00.392Z,0.93
2018-07-08T13:27:29.220Z,1.47
2018-07-08T13:29:58.082Z,1.40
2018-07-08T13:32:26.947Z,1.30
2018-07-08T13:34:55.749Z,1.30
2018-07-08T13:37:24.615Z,1.20
2018-07-08T13:39:53.423Z,0.90
2018-07-08T13:42:22.245Z,1.00
2018-07-08T13:44:50.891Z,1.20
2018-07-08T13:47:19.742Z,1.73
2018-07-08T13:49:48.651Z,1.13
2018-07-08T13:52:17.437Z,1.17
2018-07-08T13:54:46.354Z,0.90
2018-07-08T13:57:15.159Z,1.57
2018-07-08T13:59:44.004Z,1.73
2018-07-08T14:02:12.870Z,1.17
2018-07-08T14:04:42.076Z,0.90
2018-07-08T14:07:11.036Z,0.97
2018-07-08T14:09:39.965Z,1.53
2018-07-08T14:12:08.780Z,1.07
2018-07-08T14:14:37.855Z,0.93
2018-07-08T14:17:06.618Z,1.00
2018-07-08T14:19:35.480Z,0.90
2018-07-08T14:22:04.645Z,0.80
2018-07-08T14:24:33.479Z,0.80
2018-07-08T14:27:02.445Z,0.93
2018-07-08T14:29:31.457Z,0.87
2018-07-08T14:32:00.211Z,0.90
2018-07-08T14:34:29.047Z,0.80
2018-07-08T14:36:57.836Z,0.80
2018-07-08T14:39:26.759Z,0.80
2018-07-08T14:41:55.439Z,0.73
2018-07-08T14:44:24.271Z,0.90
2018-07-08T14:46:53.252Z,0.80
2018-07-08T14:49:22.054Z,1.10
2018-07-08T14:51:50.857Z,0.77
2018-07-08T14:54:19.701Z,0.50
2018-07-08T14:56:48.580Z,0.50
2018-07-08T14:59:17.556Z,0.70
2018-07-08T15:01:46.735Z,0.93
2018-07-08T15:04:15.608Z,0.60
2018-07-08T15:06:44.600Z,0.77
2018-07-08T15:09:13.584Z,0.80
2018-07-08T15:11:42.476Z,1.17
2018-07-08T15:14:11.295Z,0.70
2018-07-08T15:16:40.152Z,0.87
2018-07-08T15:19:08.733Z,0.60
2018-07-08T15:21:37.416Z,0.60
2018-07-08T15:24:06.584Z,0.90
2018-07-08T15:26:35.509Z,0.60
2018-07-08T15:29:04.415Z,0.73
2018-07-08T15:31:33.082Z,0.40
2018-07-08T15:34:01.914Z,0.70
2018-07-08T15:36:30.976Z,0.80
2018-07-08T15:38:59.691Z,0.60
2018-07-08T15:41:28.419Z,0.60
2018-07-08T15:43:57.292Z,0.93
2018-07-08T15:46:26.064Z,1.10
2018-07-08T15:48:55.042Z,0.80
2018-07-08T15:51:23.850Z,0.80
2018-07-08T15:53:52.774Z,0.80
2018-07-08T15:56:21.679Z,0.67
2018-07-08T15:58:50.550Z,1.13
2018-07-08T16:01:19.343Z,0.80
2018-07-08T16:03:48.295Z,0.80
2018-07-08T16:06:17.149Z,0.60
2018-07-08T16:08:46.148Z,0.80
2018-07-08T16:11:14.783Z,0.70
2018-07-08T16:13:43.664Z,0.60
2018-07-08T16:16:12.443Z,1.07
2018-07-08T16:18:41.398Z,1.57
2018-07-08T16:21:10.194Z,0.77
2018-07-08T16:23:39.028Z,1.23
2018-07-08T16:26:07.836Z,0.97
2018-07-08T16:28:36.974Z,1.00
2018-07-08T16:31:05.897Z,1.47
2018-07-08T16:33:34.762Z,0.80
2018-07-08T16:36:03.725Z,0.80
2018-07-08T16:38:32.514Z,0.97
2018-07-08T16:41:01.372Z,1.10
2018-07-08T16:43:30.361Z,0.90
2018-07-08T16:45:59.276Z,0.80
2018-07-08T16:48:28.072Z,0.90
2018-07-08T16:50:56.920Z,0.80
2018-07-08T16:53:25.655Z,1.10
2018-07-08T16:55:54.555Z,0.80
2018-07-08T16:58:23.398Z,1.10
2018-07-08T17:00:52.305Z,1.07
2018-07-08T17:03:21.079Z,1.00
2018-07-08T17:05:50.031Z,0.77
2018-07-08T17:08:18.942Z,1.03
2018-07-08T17:10:47.838Z,1.07
2018-07-08T17:13:16.692Z,1.13
2018-07-08T17:15:45.513Z,2.00
2018-07-08T17:18:14.650Z,1.40
2018-07-08T17:20:43.418Z,1.70
2018-07-08T17:23:12.117Z,1.37
2018-07-08T17:25:40.976Z,1.20
2018-07-08T17:28:09.792Z,1.03
2018-07-08T17:30:39.347Z,1.30
2018-07-08T17:33:08.250Z,1.20
2018-07-08T17:35:37.735Z,1.60
2018-07-08T17:38:06.576Z,1.20
2018-07-08T17:40:35.479Z,1.30
2018-07-08T17:43:04.326Z,1.47
2018-07-08T17:45:39.275Z,1.07
2018-07-08T17:48:08.091Z,1.23
2018-07-08T17:50:36.685Z,1.37
2018-07-08T17:53:05.847Z,1.67
2018-07-08T17:55:34.844Z,1.30
2018-07-08T17:58:03.648Z,1.10
2018-07-08T18:00:32.307Z,1.67
2018-07-08T18:03:01.230Z,1.30
2018-07-08T18:05:29.996Z,1.30
2018-07-08T18:07:58.900Z,1.53
2018-07-08T18:10:27.815Z,1.50
2018-07-08T18:12:56.483Z,1.20
2018-07-08T18:15:25.400Z,1.40
2018-07-08T18:17:54.343Z,1.50
2018-07-08T18:20:23.160Z,1.50
2018-07-08T18:22:52.023Z,1.00
2018-07-08T18:25:20.797Z,1.30
2018-07-08T18:27:49.592Z,1.20
2018-07-08T18:30:18.781Z,1.40
2018-07-08T18:32:47.546Z,1.23
2018-07-08T18:35:16.956Z,1.47
2018-07-08T18:37:45.721Z,1.60
2018-07-08T18:40:15.138Z,1.63
2018-07-08T18:42:44.005Z,1.80
2018-07-08T18:45:19.029Z,1.90
2018-07-08T18:47:47.932Z,1.90
2018-07-08T18:50:16.781Z,2.17
2018-07-08T18:52:45.641Z,1.60
2018-07-08T18:55:17.076Z,1.80
2018-07-08T18:57:45.887Z,2.10
2018-07-08T19:00:14.706Z,1.63
2018-07-08T19:02:43.487Z,2.30
2018-07-08T19:05:13.041Z,2.10
2018-07-08T19:07:41.911Z,2.00
2018-07-08T19:10:10.804Z,2.13
2018-07-08T19:12:40.267Z,2.20
2018-07-08T19:15:09.143Z,2.10
2018-07-08T19:17:38.147Z,2.30
2018-07-08T19:20:07.092Z,2.70
2018-07-08T19:22:35.999Z,2.17
2018-07-08T19:25:04.867Z,2.80
2018-07-08T19:27:33.714Z,2.70
2018-07-08T19:30:02.675Z,2.37
2018-07-08T19:32:31.924Z,2.60
2018-07-08T19:35:01.055Z,2.93
2018-07-08T19:37:30.435Z,2.30
2018-07-08T19:39:59.270Z,2.70
2018-07-08T19:42:28.344Z,2.70
2018-07-08T19:44:57.548Z,2.90
2018-07-08T19:47:26.416Z,2.80
2018-07-08T19:49:55.182Z,3.10
2018-07-08T19:52:24.644Z,2.57
2018-07-08T19:54:53.503Z,2.37
2018-07-08T19:57:22.253Z,2.90
2018-07-08T19:59:51.376Z,3.23
2018-07-08T20:02:20.236Z,3.20
2018-07-08T20:04:48.883Z,2.90
2018-07-08T20:07:17.695Z,2.53
2018-07-08T20:09:46.580Z,3.00
2018-07-08T20:12:15.440Z,3.07
2018-07-08T20:14:44.277Z,3.40
2018-07-08T20:17:12.941Z,3.30
2018-07-08T20:19:41.788Z,3.37
2018-07-08T20:22:10.556Z,3.23
2018-07-08T20:24:39.185Z,3.23
2018-07-08T20:27:07.976Z,3.30
2018-07-08T20:29:36.871Z,3.63
2018-07-08T20:32:05.651Z,3.50
2018-07-08T20:34:34.386Z,3.93
2018-07-08T20:37:03.276Z,3.63
2018-07-08T20:39:32.187Z,3.43
2018-07-08T20:42:01.320Z,3.50
2018-07-08T20:44:30.359Z,3.70
2018-07-08T20:46:59.353Z,4.00
2018-07-08T20:49:28.231Z,3.90
2018-07-08T20:51:57.948Z,3.77
2018-07-08T20:54:26.821Z,3.77
2018-07-08T20:56:55.603Z,3.73
2018-07-08T20:59:24.872Z,3.63
2018-07-08T21:01:53.787Z,3.27
2018-07-08T21:04:23.020Z,3.97
2018-07-08T21:06:51.943Z,4.00
2018-07-08T21:09:20.792Z,4.27
2018-07-08T21:11:49.727Z,4.00
2018-07-08T21:14:18.443Z,3.57
2018-07-08T21:16:47.320Z,3.43
2018-07-08T21:19:16.503Z,3.83
2018-07-08T21:21:45.239Z,4.50
2018-07-08T21:24:14.174Z,4.33
2018-07-08T21:26:43.126Z,3.73
2018-07-08T21:29:12.012Z,4.23
2018-07-08T21:31:40.875Z,4.60
2018-07-08T21:34:09.674Z,4.53
2018-07-08T21:36:38.890Z,4.67
2018-07-08T21:39:09.556Z,4.83
2018-07-08T21:41:39.109Z,4.90
2018-07-08T21:44:08.379Z,4.83
2018-07-08T21:46:37.302Z,5.00
2018-07-08T21:49:06.276Z,4.77
2018-07-08T21:51:34.954Z,5.30
2018-07-08T21:54:03.820Z,4.47
2018-07-08T21:56:32.745Z,4.30
2018-07-08T21:59:01.351Z,4.47
2018-07-08T22:02:09.268Z,4.77
2018-07-08T22:04:38.193Z,4.10
2018-07-08T22:07:12.708Z,4.73
2018-07-08T22:09:41.489Z,5.07
2018-07-08T22:12:10.258Z,5.33
2018-07-08T22:14:39.235Z,5.03
2018-07-08T22:17:08.083Z,5.30
2018-07-08T22:19:37.344Z,5.33
2018-07-08T22:22:06.387Z,5.17
2018-07-08T22:24:35.240Z,4.73
2018-07-08T22:27:04.536Z,7.03
2018-07-08T22:29:34.283Z,4.97
2018-07-08T22:32:03.135Z,5.37
2018-07-08T22:34:31.951Z,5.77
2018-07-08T22:37:00.900Z,5.23
2018-07-08T22:39:29.619Z,5.23
2018-07-08T22:41:58.460Z,4.80
2018-07-08T22:44:27.390Z,4.93
2018-07-08T22:46:56.166Z,5.40
2018-07-08T22:49:25.064Z,5.43
2018-07-08T22:51:54.137Z,5.57
2018-07-08T22:54:22.986Z,4.83
2018-07-08T22:56:51.867Z,4.70
2018-07-08T22:59:21.099Z,4.50
2018-07-08T23:02:06.696Z,4.67
2018-07-08T23:04:35.527Z,5.00
2018-07-08T23:07:04.407Z,5.00
2018-07-08T23:09:33.300Z,4.77
2018-07-08T23:12:02.225Z,5.37
2018-07-08T23:14:31.079Z,5.63
2018-07-08T23:16:59.752Z,5.57
2018-07-08T23:19:28.572Z,5.50
2018-07-08T23:21:57.733Z,5.93
2018-07-08T23:24:26.712Z,5.40
2018-07-08T23:26:55.616Z,5.40
2018-07-08T23:29:24.597Z,5.67
2018-07-08T23:31:53.543Z,5.70
2018-07-08T23:34:22.416Z,6.73
2018-07-08T23:36:51.377Z,5.60
2018-07-08T23:39:20.233Z,5.83
2018-07-08T23:41:49.102Z,5.60
2018-07-08T23:44:18.092Z,5.70
2018-07-08T23:46:46.997Z,6.13
2018-07-08T23:49:15.836Z,6.57
2018-07-08T23:51:44.683Z,5.93
2018-07-08T23:54:13.535Z,6.67
2018-07-08T23:56:42.467Z,6.80
2018-07-08T23:59:11.257Z,6.70
